This is the latest recevied weather packets stored in our database for station/object K7AEL. If no packets are shown the sender has not sent any weather packets the latest 10 day(s).
| Time | Temp. | Humidity | Pressure | Rain* | Wind** | Luminosity | Snow |
|---|---|---|---|---|---|---|---|
| 1777220890 | 21.11° C | 42% | 1013 hPa | 0 mm | - | 509 W/m² | - |
| 1777220586 | 21.11° C | 41% | 1012.9 hPa | 0 mm | - | 499 W/m² | - |
| 1777220282 | 20.56° C | 41% | 1012.9 hPa | 0 mm | - | 493 W/m² | - |
| 1777219977 | 20.56° C | 41% | 1012.9 hPa | 0 mm | - | 470 W/m² | - |
| 1777219675 | 20.56° C | 40% | 1012.9 hPa | 0 mm | - | 454 W/m² | - |
| 1777219372 | 20.56° C | 42% | 1012.9 hPa | 0 mm | - | 435 W/m² | - |
| 1777219069 | 20.56° C | 41% | 1012.9 hPa | 0 mm | - | 417 W/m² | - |
| 1777218764 | 20.56° C | 41% | 1012.7 hPa | 0 mm | - | 401 W/m² | - |
| 1777218459 | 20° C | 43% | 1012.8 hPa | 0 mm | - | 385 W/m² | - |
| 1777218155 | 20° C | 43% | 1012.6 hPa | 0 mm | - | 374 W/m² | - |
| 1777217852 | 20° C | 43% | 1012.6 hPa | 0 mm | - | 357 W/m² | - |
| 1777217547 | 20° C | 43% | 1012.4 hPa | 0 mm | - | 338 W/m² | - |
| 1777217239 | 19.44° C | 44% | 1012.6 hPa | 0 mm | - | 321 W/m² | - |
| 1777216935 | 18.89° C | 45% | 1012.7 hPa | 0 mm | - | 309 W/m² | - |
| 1777216631 | 18.33° C | 47% | 1012.4 hPa | 0 mm | - | 292 W/m² | - |
| 1777216327 | 18.33° C | 47% | 1012.5 hPa | 0 mm | - | 277 W/m² | - |
| 1777216026 | 18.33° C | 48% | 1012.4 hPa | 0 mm | - | 264 W/m² | - |
| 1777215721 | 18.33° C | 49% | 1012.4 hPa | 0 mm | - | 251 W/m² | - |
| 1777215416 | 17.78° C | 48% | 1012.3 hPa | 0 mm | - | 242 W/m² | - |
| 1777215114 | 17.78° C | 48% | 1012.3 hPa | 0 mm | - | 217 W/m² | - |
| 1777214808 | 18.33° C | 47% | 1012.2 hPa | 0 mm | - | 44 W/m² | - |
| 1777214503 | 17.78° C | 46% | 1012.3 hPa | 0 mm | - | 41 W/m² | - |
| 1777214198 | 17.78° C | 44% | 1012.2 hPa | 0 mm | - | 40 W/m² | - |
| 1777213897 | 17.78° C | 40% | 1012.1 hPa | 0 mm | - | 37 W/m² | - |
| 1777213592 | 17.78° C | 39% | 1012 hPa | 0 mm | - | 38 W/m² | - |
* Rain latest hour (hover to see other rain measurements)
** Current wind speed in m/s (hover to see current wind gust speed)